sensor_id;sensor_type;location;lat;lon;timestamp;P1;durP1;ratioP1;P2;durP2;ratioP2
29452;SDS011;16424;50.956;5.320;2023-06-26T00:01:23;6.20;;;5.25;;
29452;SDS011;16424;50.956;5.320;2023-06-26T00:03:49;8.80;;;5.07;;
29452;SDS011;16424;50.956;5.320;2023-06-26T00:06:15;10.50;;;4.72;;
29452;SDS011;16424;50.956;5.320;2023-06-26T00:08:41;6.95;;;5.55;;
29452;SDS011;16424;50.956;5.320;2023-06-26T00:11:08;6.90;;;4.57;;
29452;SDS011;16424;50.956;5.320;2023-06-26T00:13:34;7.05;;;5.05;;
29452;SDS011;16424;50.956;5.320;2023-06-26T00:16:00;9.45;;;4.80;;
29452;SDS011;16424;50.956;5.320;2023-06-26T00:18:28;5.60;;;4.68;;
29452;SDS011;16424;50.956;5.320;2023-06-26T00:20:54;6.53;;;5.03;;
29452;SDS011;16424;50.956;5.320;2023-06-26T00:23:20;6.38;;;4.72;;
29452;SDS011;16424;50.956;5.320;2023-06-26T00:25:46;5.13;;;4.15;;
29452;SDS011;16424;50.956;5.320;2023-06-26T00:28:12;5.10;;;4.47;;
29452;SDS011;16424;50.956;5.320;2023-06-26T00:30:41;5.80;;;4.55;;
29452;SDS011;16424;50.956;5.320;2023-06-26T00:33:07;5.90;;;4.28;;
29452;SDS011;16424;50.956;5.320;2023-06-26T00:35:33;6.38;;;4.30;;
29452;SDS011;16424;50.956;5.320;2023-06-26T00:38:00;6.35;;;3.97;;
29452;SDS011;16424;50.956;5.320;2023-06-26T00:40:26;5.25;;;3.60;;
29452;SDS011;16424;50.956;5.320;2023-06-26T00:42:52;8.52;;;4.65;;
29452;SDS011;16424;50.956;5.320;2023-06-26T00:45:18;8.07;;;4.35;;
29452;SDS011;16424;50.956;5.320;2023-06-26T00:47:44;8.07;;;3.97;;
29452;SDS011;16424;50.956;5.320;2023-06-26T00:50:10;8.50;;;4.53;;
29452;SDS011;16424;50.956;5.320;2023-06-26T00:52:37;6.70;;;4.18;;
29452;SDS011;16424;50.956;5.320;2023-06-26T00:55:03;5.22;;;3.50;;
29452;SDS011;16424;50.956;5.320;2023-06-26T00:57:30;6.95;;;4.88;;
29452;SDS011;16424;50.956;5.320;2023-06-26T00:59:56;5.65;;;4.53;;
29452;SDS011;16424;50.956;5.320;2023-06-26T01:02:23;5.68;;;3.55;;
29452;SDS011;16424;50.956;5.320;2023-06-26T01:04:51;7.70;;;3.72;;
29452;SDS011;16424;50.956;5.320;2023-06-26T01:07:18;7.03;;;4.53;;
29452;SDS011;16424;50.956;5.320;2023-06-26T01:09:46;8.32;;;4.28;;
29452;SDS011;16424;50.956;5.320;2023-06-26T01:12:13;8.35;;;4.00;;
29452;SDS011;16424;50.956;5.320;2023-06-26T01:14:40;7.65;;;3.75;;
29452;SDS011;16424;50.956;5.320;2023-06-26T01:17:06;5.35;;;3.95;;
29452;SDS011;16424;50.956;5.320;2023-06-26T01:19:37;6.72;;;4.72;;
29452;SDS011;16424;50.956;5.320;2023-06-26T01:22:19;4.72;;;3.92;;
29452;SDS011;16424;50.956;5.320;2023-06-26T01:28:06;5.70;;;3.85;;
29452;SDS011;16424;50.956;5.320;2023-06-26T01:30:34;8.30;;;3.47;;
29452;SDS011;16424;50.956;5.320;2023-06-26T01:33:03;6.38;;;4.10;;
29452;SDS011;16424;50.956;5.320;2023-06-26T01:35:30;5.30;;;3.88;;
29452;SDS011;16424;50.956;5.320;2023-06-26T01:38:15;7.18;;;3.90;;
29452;SDS011;16424;50.956;5.320;2023-06-26T01:40:42;6.35;;;3.80;;
29452;SDS011;16424;50.956;5.320;2023-06-26T01:43:11;5.55;;;4.38;;
29452;SDS011;16424;50.956;5.320;2023-06-26T01:45:44;6.90;;;3.58;;
29452;SDS011;16424;50.956;5.320;2023-06-26T01:48:13;3.78;;;3.28;;
29452;SDS011;16424;50.956;5.320;2023-06-26T01:50:41;5.63;;;3.42;;
29452;SDS011;16424;50.956;5.320;2023-06-26T01:58:11;4.32;;;3.10;;
29452;SDS011;16424;50.956;5.320;2023-06-26T02:00:41;4.93;;;3.22;;
29452;SDS011;16424;50.956;5.320;2023-06-26T02:03:08;4.30;;;3.35;;
29452;SDS011;16424;50.956;5.320;2023-06-26T02:05:34;6.47;;;3.92;;
29452;SDS011;16424;50.956;5.320;2023-06-26T02:08:00;6.47;;;3.30;;
29452;SDS011;16424;50.956;5.320;2023-06-26T02:10:27;4.75;;;3.10;;
29452;SDS011;16424;50.956;5.320;2023-06-26T02:12:53;7.03;;;3.28;;
29452;SDS011;16424;50.956;5.320;2023-06-26T02:15:19;8.13;;;3.72;;
29452;SDS011;16424;50.956;5.320;2023-06-26T02:17:45;6.13;;;4.57;;
29452;SDS011;16424;50.956;5.320;2023-06-26T02:20:13;10.60;;;3.60;;
29452;SDS011;16424;50.956;5.320;2023-06-26T02:22:40;6.40;;;4.40;;
29452;SDS011;16424;50.956;5.320;2023-06-26T02:25:07;7.35;;;4.05;;
29452;SDS011;16424;50.956;5.320;2023-06-26T02:27:34;5.88;;;3.92;;
29452;SDS011;16424;50.956;5.320;2023-06-26T02:30:00;8.13;;;4.10;;
29452;SDS011;16424;50.956;5.320;2023-06-26T02:32:26;5.63;;;4.15;;
29452;SDS011;16424;50.956;5.320;2023-06-26T02:34:52;7.35;;;3.40;;
29452;SDS011;16424;50.956;5.320;2023-06-26T02:37:19;8.85;;;3.30;;
29452;SDS011;16424;50.956;5.320;2023-06-26T02:39:45;6.90;;;3.90;;
29452;SDS011;16424;50.956;5.320;2023-06-26T02:42:11;5.22;;;2.78;;
29452;SDS011;16424;50.956;5.320;2023-06-26T02:44:37;3.65;;;2.78;;
29452;SDS011;16424;50.956;5.320;2023-06-26T02:47:02;6.55;;;3.13;;
29452;SDS011;16424;50.956;5.320;2023-06-26T02:49:29;4.38;;;3.47;;
29452;SDS011;16424;50.956;5.320;2023-06-26T02:51:55;5.30;;;3.05;;
29452;SDS011;16424;50.956;5.320;2023-06-26T02:54:20;4.40;;;3.17;;
29452;SDS011;16424;50.956;5.320;2023-06-26T02:56:46;6.85;;;4.00;;
29452;SDS011;16424;50.956;5.320;2023-06-26T02:59:13;6.18;;;3.80;;
29452;SDS011;16424;50.956;5.320;2023-06-26T03:01:39;7.65;;;3.70;;
29452;SDS011;16424;50.956;5.320;2023-06-26T03:04:05;4.70;;;3.20;;
29452;SDS011;16424;50.956;5.320;2023-06-26T03:06:31;4.50;;;3.08;;
29452;SDS011;16424;50.956;5.320;2023-06-26T03:08:57;6.28;;;3.30;;
29452;SDS011;16424;50.956;5.320;2023-06-26T03:11:23;7.57;;;3.17;;
29452;SDS011;16424;50.956;5.320;2023-06-26T03:13:49;6.90;;;3.15;;
29452;SDS011;16424;50.956;5.320;2023-06-26T03:16:14;5.10;;;3.35;;
29452;SDS011;16424;50.956;5.320;2023-06-26T03:18:40;8.70;;;3.42;;
29452;SDS011;16424;50.956;5.320;2023-06-26T03:21:08;5.43;;;3.13;;
29452;SDS011;16424;50.956;5.320;2023-06-26T03:23:35;5.15;;;2.50;;
29452;SDS011;16424;50.956;5.320;2023-06-26T03:26:01;6.75;;;3.25;;
29452;SDS011;16424;50.956;5.320;2023-06-26T03:28:26;4.32;;;2.85;;
29452;SDS011;16424;50.956;5.320;2023-06-26T03:30:52;4.85;;;3.22;;
29452;SDS011;16424;50.956;5.320;2023-06-26T03:33:18;7.32;;;3.17;;
29452;SDS011;16424;50.956;5.320;2023-06-26T03:35:44;3.92;;;2.97;;
29452;SDS011;16424;50.956;5.320;2023-06-26T03:38:11;4.57;;;2.90;;
29452;SDS011;16424;50.956;5.320;2023-06-26T03:40:36;7.70;;;2.95;;
29452;SDS011;16424;50.956;5.320;2023-06-26T03:43:02;5.05;;;3.38;;
29452;SDS011;16424;50.956;5.320;2023-06-26T03:45:28;6.63;;;3.10;;
29452;SDS011;16424;50.956;5.320;2023-06-26T03:47:54;4.13;;;2.90;;
29452;SDS011;16424;50.956;5.320;2023-06-26T03:50:20;7.53;;;3.25;;
29452;SDS011;16424;50.956;5.320;2023-06-26T03:52:46;6.70;;;3.10;;
29452;SDS011;16424;50.956;5.320;2023-06-26T03:55:12;4.88;;;3.22;;
29452;SDS011;16424;50.956;5.320;2023-06-26T03:57:38;5.35;;;2.90;;
29452;SDS011;16424;50.956;5.320;2023-06-26T04:00:04;7.65;;;2.97;;
29452;SDS011;16424;50.956;5.320;2023-06-26T04:02:34;7.30;;;3.50;;
29452;SDS011;16424;50.956;5.320;2023-06-26T04:05:00;9.75;;;2.90;;
29452;SDS011;16424;50.956;5.320;2023-06-26T04:07:28;8.10;;;3.97;;
29452;SDS011;16424;50.956;5.320;2023-06-26T04:09:54;6.88;;;2.85;;
29452;SDS011;16424;50.956;5.320;2023-06-26T04:12:20;9.02;;;3.05;;
29452;SDS011;16424;50.956;5.320;2023-06-26T04:14:46;5.45;;;2.75;;
29452;SDS011;16424;50.956;5.320;2023-06-26T04:17:12;5.80;;;2.88;;
29452;SDS011;16424;50.956;5.320;2023-06-26T04:19:37;6.63;;;3.13;;
29452;SDS011;16424;50.956;5.320;2023-06-26T04:22:03;10.50;;;3.95;;
29452;SDS011;16424;50.956;5.320;2023-06-26T04:24:29;7.22;;;2.80;;
29452;SDS011;16424;50.956;5.320;2023-06-26T04:26:55;5.15;;;3.13;;
29452;SDS011;16424;50.956;5.320;2023-06-26T04:29:22;4.00;;;2.78;;
29452;SDS011;16424;50.956;5.320;2023-06-26T04:31:52;6.93;;;2.80;;
29452;SDS011;16424;50.956;5.320;2023-06-26T04:34:22;3.40;;;2.30;;
29452;SDS011;16424;50.956;5.320;2023-06-26T04:36:52;10.30;;;3.28;;
29452;SDS011;16424;50.956;5.320;2023-06-26T04:39:18;4.13;;;2.47;;
29452;SDS011;16424;50.956;5.320;2023-06-26T04:41:44;7.93;;;3.30;;
29452;SDS011;16424;50.956;5.320;2023-06-26T04:44:10;6.93;;;3.20;;
29452;SDS011;16424;50.956;5.320;2023-06-26T04:46:37;6.25;;;3.05;;
29452;SDS011;16424;50.956;5.320;2023-06-26T04:49:09;9.57;;;3.30;;
29452;SDS011;16424;50.956;5.320;2023-06-26T04:51:35;5.18;;;2.80;;
29452;SDS011;16424;50.956;5.320;2023-06-26T04:54:10;6.30;;;2.97;;
29452;SDS011;16424;50.956;5.320;2023-06-26T04:56:36;7.07;;;2.67;;
29452;SDS011;16424;50.956;5.320;2023-06-26T04:59:05;7.70;;;3.53;;
29452;SDS011;16424;50.956;5.320;2023-06-26T05:01:31;7.43;;;3.20;;
29452;SDS011;16424;50.956;5.320;2023-06-26T05:03:57;9.80;;;3.88;;
29452;SDS011;16424;50.956;5.320;2023-06-26T05:06:24;9.27;;;3.70;;
29452;SDS011;16424;50.956;5.320;2023-06-26T05:08:50;6.55;;;3.30;;
29452;SDS011;16424;50.956;5.320;2023-06-26T05:11:16;6.68;;;3.05;;
29452;SDS011;16424;50.956;5.320;2023-06-26T05:13:42;9.43;;;3.10;;
29452;SDS011;16424;50.956;5.320;2023-06-26T05:16:08;6.78;;;2.97;;
29452;SDS011;16424;50.956;5.320;2023-06-26T05:18:34;9.60;;;3.30;;
29452;SDS011;16424;50.956;5.320;2023-06-26T05:21:01;9.23;;;3.33;;
29452;SDS011;16424;50.956;5.320;2023-06-26T05:23:31;11.15;;;2.80;;
29452;SDS011;16424;50.956;5.320;2023-06-26T05:25:58;9.30;;;3.35;;
29452;SDS011;16424;50.956;5.320;2023-06-26T05:28:24;12.95;;;2.97;;
29452;SDS011;16424;50.956;5.320;2023-06-26T05:30:52;7.97;;;3.95;;
29452;SDS011;16424;50.956;5.320;2023-06-26T05:33:19;12.10;;;3.75;;
29452;SDS011;16424;50.956;5.320;2023-06-26T05:35:48;12.98;;;2.90;;
29452;SDS011;16424;50.956;5.320;2023-06-26T05:38:15;9.48;;;3.13;;
29452;SDS011;16424;50.956;5.320;2023-06-26T05:40:42;9.95;;;2.80;;
29452;SDS011;16424;50.956;5.320;2023-06-26T05:43:08;8.65;;;3.28;;
29452;SDS011;16424;50.956;5.320;2023-06-26T05:45:34;10.07;;;2.50;;
29452;SDS011;16424;50.956;5.320;2023-06-26T05:48:00;8.70;;;2.72;;
29452;SDS011;16424;50.956;5.320;2023-06-26T05:50:27;6.80;;;3.00;;
29452;SDS011;16424;50.956;5.320;2023-06-26T05:52:54;7.20;;;1.95;;
29452;SDS011;16424;50.956;5.320;2023-06-26T05:55:20;7.35;;;2.15;;
29452;SDS011;16424;50.956;5.320;2023-06-26T05:57:47;13.45;;;2.63;;
29452;SDS011;16424;50.956;5.320;2023-06-26T06:00:15;9.13;;;2.92;;
29452;SDS011;16424;50.956;5.320;2023-06-26T06:02:41;6.28;;;2.85;;
29452;SDS011;16424;50.956;5.320;2023-06-26T06:05:08;12.48;;;2.80;;
29452;SDS011;16424;50.956;5.320;2023-06-26T06:07:35;10.52;;;3.15;;
29452;SDS011;16424;50.956;5.320;2023-06-26T06:10:02;10.15;;;3.35;;
29452;SDS011;16424;50.956;5.320;2023-06-26T06:12:28;13.80;;;2.70;;
29452;SDS011;16424;50.956;5.320;2023-06-26T06:14:55;6.85;;;2.55;;
29452;SDS011;16424;50.956;5.320;2023-06-26T06:17:21;10.27;;;2.72;;
29452;SDS011;16424;50.956;5.320;2023-06-26T06:19:47;11.18;;;2.90;;
29452;SDS011;16424;50.956;5.320;2023-06-26T06:22:13;5.70;;;2.00;;
29452;SDS011;16424;50.956;5.320;2023-06-26T06:24:41;7.80;;;2.38;;
29452;SDS011;16424;50.956;5.320;2023-06-26T06:27:07;5.35;;;2.05;;
29452;SDS011;16424;50.956;5.320;2023-06-26T06:29:33;11.35;;;3.35;;
29452;SDS011;16424;50.956;5.320;2023-06-26T06:31:58;8.35;;;2.20;;
29452;SDS011;16424;50.956;5.320;2023-06-26T06:34:24;8.52;;;2.13;;
29452;SDS011;16424;50.956;5.320;2023-06-26T06:36:50;6.60;;;2.33;;
29452;SDS011;16424;50.956;5.320;2023-06-26T06:39:15;8.32;;;1.83;;
29452;SDS011;16424;50.956;5.320;2023-06-26T06:41:41;8.52;;;2.05;;
29452;SDS011;16424;50.956;5.320;2023-06-26T06:44:07;7.47;;;2.10;;
29452;SDS011;16424;50.956;5.320;2023-06-26T06:46:33;5.97;;;1.90;;
29452;SDS011;16424;50.956;5.320;2023-06-26T06:48:59;7.82;;;2.08;;
29452;SDS011;16424;50.956;5.320;2023-06-26T06:51:25;13.15;;;2.20;;
29452;SDS011;16424;50.956;5.320;2023-06-26T06:53:51;8.63;;;2.55;;
29452;SDS011;16424;50.956;5.320;2023-06-26T06:56:17;8.20;;;2.28;;
29452;SDS011;16424;50.956;5.320;2023-06-26T06:58:43;10.75;;;2.00;;
29452;SDS011;16424;50.956;5.320;2023-06-26T07:01:11;5.07;;;1.70;;
29452;SDS011;16424;50.956;5.320;2023-06-26T07:03:37;5.70;;;2.28;;
29452;SDS011;16424;50.956;5.320;2023-06-26T07:06:03;9.43;;;1.98;;
29452;SDS011;16424;50.956;5.320;2023-06-26T07:08:29;9.32;;;1.77;;
29452;SDS011;16424;50.956;5.320;2023-06-26T07:10:56;6.15;;;1.88;;
29452;SDS011;16424;50.956;5.320;2023-06-26T07:13:22;9.38;;;1.80;;
29452;SDS011;16424;50.956;5.320;2023-06-26T07:15:48;7.68;;;1.88;;
29452;SDS011;16424;50.956;5.320;2023-06-26T07:18:14;8.00;;;1.70;;
29452;SDS011;16424;50.956;5.320;2023-06-26T07:20:40;8.25;;;1.90;;
29452;SDS011;16424;50.956;5.320;2023-06-26T07:23:07;6.53;;;2.20;;
29452;SDS011;16424;50.956;5.320;2023-06-26T07:25:33;5.97;;;1.52;;
29452;SDS011;16424;50.956;5.320;2023-06-26T07:27:59;5.07;;;1.70;;
29452;SDS011;16424;50.956;5.320;2023-06-26T07:30:25;4.32;;;1.40;;
29452;SDS011;16424;50.956;5.320;2023-06-26T07:32:51;6.88;;;1.70;;
29452;SDS011;16424;50.956;5.320;2023-06-26T07:35:17;6.18;;;1.60;;
29452;SDS011;16424;50.956;5.320;2023-06-26T07:37:43;9.05;;;1.98;;
29452;SDS011;16424;50.956;5.320;2023-06-26T07:40:09;6.63;;;2.00;;
29452;SDS011;16424;50.956;5.320;2023-06-26T07:42:35;8.63;;;1.85;;
29452;SDS011;16424;50.956;5.320;2023-06-26T07:45:02;8.50;;;2.58;;
29452;SDS011;16424;50.956;5.320;2023-06-26T07:47:35;9.32;;;2.60;;
29452;SDS011;16424;50.956;5.320;2023-06-26T07:50:02;6.47;;;1.75;;
29452;SDS011;16424;50.956;5.320;2023-06-26T07:52:28;5.47;;;1.67;;
29452;SDS011;16424;50.956;5.320;2023-06-26T07:54:55;7.38;;;1.88;;
29452;SDS011;16424;50.956;5.320;2023-06-26T07:57:21;7.35;;;1.88;;
29452;SDS011;16424;50.956;5.320;2023-06-26T07:59:47;3.75;;;1.58;;
29452;SDS011;16424;50.956;5.320;2023-06-26T08:02:13;9.05;;;2.03;;
29452;SDS011;16424;50.956;5.320;2023-06-26T08:04:39;5.43;;;2.08;;
29452;SDS011;16424;50.956;5.320;2023-06-26T08:07:05;3.67;;;1.38;;
29452;SDS011;16424;50.956;5.320;2023-06-26T08:09:31;4.45;;;1.40;;
29452;SDS011;16424;50.956;5.320;2023-06-26T08:11:57;6.60;;;1.60;;
29452;SDS011;16424;50.956;5.320;2023-06-26T08:14:23;5.32;;;1.52;;
29452;SDS011;16424;50.956;5.320;2023-06-26T08:16:50;7.72;;;1.83;;
29452;SDS011;16424;50.956;5.320;2023-06-26T08:19:16;3.50;;;1.48;;
29452;SDS011;16424;50.956;5.320;2023-06-26T08:21:43;4.63;;;1.50;;
29452;SDS011;16424;50.956;5.320;2023-06-26T08:24:10;7.28;;;1.77;;
29452;SDS011;16424;50.956;5.320;2023-06-26T08:26:38;7.32;;;1.65;;
29452;SDS011;16424;50.956;5.320;2023-06-26T08:29:04;5.07;;;1.50;;
29452;SDS011;16424;50.956;5.320;2023-06-26T08:31:36;4.80;;;1.35;;
29452;SDS011;16424;50.956;5.320;2023-06-26T08:34:05;4.63;;;1.48;;
29452;SDS011;16424;50.956;5.320;2023-06-26T08:36:31;6.35;;;1.63;;
29452;SDS011;16424;50.956;5.320;2023-06-26T08:38:57;14.35;;;2.65;;
29452;SDS011;16424;50.956;5.320;2023-06-26T08:41:24;7.50;;;1.40;;
29452;SDS011;16424;50.956;5.320;2023-06-26T08:43:50;7.43;;;1.80;;
29452;SDS011;16424;50.956;5.320;2023-06-26T08:46:17;5.88;;;1.50;;
29452;SDS011;16424;50.956;5.320;2023-06-26T08:49:05;9.00;;;1.98;;
29452;SDS011;16424;50.956;5.320;2023-06-26T08:51:45;5.50;;;1.63;;
29452;SDS011;16424;50.956;5.320;2023-06-26T08:54:18;4.78;;;1.27;;
29452;SDS011;16424;50.956;5.320;2023-06-26T08:56:49;8.85;;;1.90;;
29452;SDS011;16424;50.956;5.320;2023-06-26T08:59:15;4.80;;;1.38;;
29452;SDS011;16424;50.956;5.320;2023-06-26T09:01:42;9.35;;;1.30;;
29452;SDS011;16424;50.956;5.320;2023-06-26T09:04:09;3.65;;;1.52;;
29452;SDS011;16424;50.956;5.320;2023-06-26T09:06:34;4.65;;;1.15;;
29452;SDS011;16424;50.956;5.320;2023-06-26T09:09:01;7.28;;;1.60;;
29452;SDS011;16424;50.956;5.320;2023-06-26T09:11:27;5.72;;;1.55;;
29452;SDS011;16424;50.956;5.320;2023-06-26T09:13:54;7.03;;;1.48;;
29452;SDS011;16424;50.956;5.320;2023-06-26T09:16:24;6.45;;;1.60;;
29452;SDS011;16424;50.956;5.320;2023-06-26T09:18:52;6.80;;;1.48;;
29452;SDS011;16424;50.956;5.320;2023-06-26T09:21:18;7.57;;;1.58;;
29452;SDS011;16424;50.956;5.320;2023-06-26T09:23:44;5.70;;;1.40;;
29452;SDS011;16424;50.956;5.320;2023-06-26T09:26:11;6.93;;;1.23;;
29452;SDS011;16424;50.956;5.320;2023-06-26T09:28:37;6.25;;;1.52;;
29452;SDS011;16424;50.956;5.320;2023-06-26T09:31:04;7.28;;;1.40;;
29452;SDS011;16424;50.956;5.320;2023-06-26T09:33:35;3.55;;;0.95;;
29452;SDS011;16424;50.956;5.320;2023-06-26T09:36:06;11.73;;;1.20;;
29452;SDS011;16424;50.956;5.320;2023-06-26T09:38:44;4.95;;;1.30;;
29452;SDS011;16424;50.956;5.320;2023-06-26T09:41:10;7.60;;;1.40;;
29452;SDS011;16424;50.956;5.320;2023-06-26T09:43:45;5.45;;;1.20;;
29452;SDS011;16424;50.956;5.320;2023-06-26T09:46:15;7.60;;;1.90;;
29452;SDS011;16424;50.956;5.320;2023-06-26T09:48:43;3.55;;;1.50;;
29452;SDS011;16424;50.956;5.320;2023-06-26T09:51:09;1.83;;;0.98;;
29452;SDS011;16424;50.956;5.320;2023-06-26T09:53:35;6.05;;;1.30;;
29452;SDS011;16424;50.956;5.320;2023-06-26T09:56:05;6.18;;;1.15;;
29452;SDS011;16424;50.956;5.320;2023-06-26T09:58:32;6.60;;;1.35;;
29452;SDS011;16424;50.956;5.320;2023-06-26T10:00:59;3.20;;;1.05;;
29452;SDS011;16424;50.956;5.320;2023-06-26T10:03:25;4.25;;;0.93;;
29452;SDS011;16424;50.956;5.320;2023-06-26T10:05:51;2.97;;;1.25;;
29452;SDS011;16424;50.956;5.320;2023-06-26T10:08:18;4.80;;;1.40;;
29452;SDS011;16424;50.956;5.320;2023-06-26T10:10:45;3.30;;;0.93;;
29452;SDS011;16424;50.956;5.320;2023-06-26T10:13:15;3.75;;;1.00;;
29452;SDS011;16424;50.956;5.320;2023-06-26T10:15:46;3.78;;;0.90;;
29452;SDS011;16424;50.956;5.320;2023-06-26T10:18:15;5.28;;;1.02;;
29452;SDS011;16424;50.956;5.320;2023-06-26T10:20:44;4.53;;;0.93;;
29452;SDS011;16424;50.956;5.320;2023-06-26T10:23:13;4.45;;;1.13;;
29452;SDS011;16424;50.956;5.320;2023-06-26T10:25:40;4.78;;;0.85;;
29452;SDS011;16424;50.956;5.320;2023-06-26T10:28:10;3.10;;;0.77;;
29452;SDS011;16424;50.956;5.320;2023-06-26T10:30:38;3.83;;;1.20;;
29452;SDS011;16424;50.956;5.320;2023-06-26T10:33:06;3.60;;;1.05;;
29452;SDS011;16424;50.956;5.320;2023-06-26T10:35:33;3.22;;;0.50;;
29452;SDS011;16424;50.956;5.320;2023-06-26T10:38:06;3.92;;;0.98;;
29452;SDS011;16424;50.956;5.320;2023-06-26T10:43:11;4.55;;;0.70;;
29452;SDS011;16424;50.956;5.320;2023-06-26T10:45:45;2.67;;;0.75;;
29452;SDS011;16424;50.956;5.320;2023-06-26T10:48:14;1.70;;;0.80;;
29452;SDS011;16424;50.956;5.320;2023-06-26T10:50:40;6.60;;;1.20;;
29452;SDS011;16424;50.956;5.320;2023-06-26T10:53:08;2.47;;;0.85;;
29452;SDS011;16424;50.956;5.320;2023-06-26T10:55:34;5.63;;;0.80;;
29452;SDS011;16424;50.956;5.320;2023-06-26T10:58:01;2.20;;;0.80;;
29452;SDS011;16424;50.956;5.320;2023-06-26T11:00:29;7.15;;;0.90;;
29452;SDS011;16424;50.956;5.320;2023-06-26T11:02:55;3.63;;;0.85;;
29452;SDS011;16424;50.956;5.320;2023-06-26T11:05:28;5.25;;;0.90;;
29452;SDS011;16424;50.956;5.320;2023-06-26T11:10:51;3.70;;;0.60;;
29452;SDS011;16424;50.956;5.320;2023-06-26T11:13:19;4.15;;;0.90;;
29452;SDS011;16424;50.956;5.320;2023-06-26T11:15:46;2.55;;;0.68;;
29452;SDS011;16424;50.956;5.320;2023-06-26T11:18:12;9.30;;;1.67;;
29452;SDS011;16424;50.956;5.320;2023-06-26T11:20:39;3.28;;;0.82;;
29452;SDS011;16424;50.956;5.320;2023-06-26T11:23:05;5.78;;;0.73;;
29452;SDS011;16424;50.956;5.320;2023-06-26T11:25:36;2.58;;;0.90;;
29452;SDS011;16424;50.956;5.320;2023-06-26T11:28:03;1.33;;;0.52;;
29452;SDS011;16424;50.956;5.320;2023-06-26T11:30:30;4.90;;;1.38;;
29452;SDS011;16424;50.956;5.320;2023-06-26T11:33:03;3.15;;;1.00;;
29452;SDS011;16424;50.956;5.320;2023-06-26T11:35:31;3.70;;;0.73;;
29452;SDS011;16424;50.956;5.320;2023-06-26T11:37:57;5.32;;;0.90;;
29452;SDS011;16424;50.956;5.320;2023-06-26T11:40:25;4.38;;;1.00;;
29452;SDS011;16424;50.956;5.320;2023-06-26T11:42:52;3.03;;;0.98;;
29452;SDS011;16424;50.956;5.320;2023-06-26T11:45:19;5.88;;;1.27;;
29452;SDS011;16424;50.956;5.320;2023-06-26T11:47:45;4.28;;;0.80;;
29452;SDS011;16424;50.956;5.320;2023-06-26T11:50:15;5.05;;;1.13;;
29452;SDS011;16424;50.956;5.320;2023-06-26T11:52:44;1.88;;;0.80;;
29452;SDS011;16424;50.956;5.320;2023-06-26T11:55:10;5.32;;;0.98;;
29452;SDS011;16424;50.956;5.320;2023-06-26T11:57:37;4.78;;;0.63;;
29452;SDS011;16424;50.956;5.320;2023-06-26T12:00:13;6.40;;;1.05;;
29452;SDS011;16424;50.956;5.320;2023-06-26T12:02:40;2.13;;;0.93;;
29452;SDS011;16424;50.956;5.320;2023-06-26T12:05:06;4.40;;;0.80;;
29452;SDS011;16424;50.956;5.320;2023-06-26T12:07:32;2.90;;;0.88;;
29452;SDS011;16424;50.956;5.320;2023-06-26T12:10:00;3.55;;;0.88;;
29452;SDS011;16424;50.956;5.320;2023-06-26T12:12:27;4.78;;;0.80;;
29452;SDS011;16424;50.956;5.320;2023-06-26T12:14:53;8.20;;;1.30;;
29452;SDS011;16424;50.956;5.320;2023-06-26T12:17:22;5.70;;;0.70;;
29452;SDS011;16424;50.956;5.320;2023-06-26T12:19:48;3.63;;;1.10;;
29452;SDS011;16424;50.956;5.320;2023-06-26T12:22:15;5.13;;;1.10;;
29452;SDS011;16424;50.956;5.320;2023-06-26T12:24:43;2.22;;;0.80;;
29452;SDS011;16424;50.956;5.320;2023-06-26T12:27:11;4.63;;;1.35;;
29452;SDS011;16424;50.956;5.320;2023-06-26T12:29:45;4.30;;;0.85;;
29452;SDS011;16424;50.956;5.320;2023-06-26T12:32:18;2.13;;;0.80;;
29452;SDS011;16424;50.956;5.320;2023-06-26T12:34:48;2.60;;;0.77;;
29452;SDS011;16424;50.956;5.320;2023-06-26T12:37:15;4.00;;;1.00;;
29452;SDS011;16424;50.956;5.320;2023-06-26T12:40:00;4.40;;;0.73;;
29452;SDS011;16424;50.956;5.320;2023-06-26T12:42:27;5.35;;;1.23;;
29452;SDS011;16424;50.956;5.320;2023-06-26T12:44:54;4.13;;;1.35;;
29452;SDS011;16424;50.956;5.320;2023-06-26T12:47:25;2.60;;;1.00;;
29452;SDS011;16424;50.956;5.320;2023-06-26T12:49:53;1.40;;;0.93;;
29452;SDS011;16424;50.956;5.320;2023-06-26T12:52:20;1.55;;;0.85;;
29452;SDS011;16424;50.956;5.320;2023-06-26T12:54:46;3.67;;;1.17;;
29452;SDS011;16424;50.956;5.320;2023-06-26T12:57:16;3.92;;;1.00;;
29452;SDS011;16424;50.956;5.320;2023-06-26T12:59:42;2.80;;;0.80;;
29452;SDS011;16424;50.956;5.320;2023-06-26T13:02:09;1.73;;;0.60;;
29452;SDS011;16424;50.956;5.320;2023-06-26T13:04:36;2.22;;;1.05;;
29452;SDS011;16424;50.956;5.320;2023-06-26T13:07:05;4.50;;;1.00;;
29452;SDS011;16424;50.956;5.320;2023-06-26T13:09:33;3.53;;;0.90;;
29452;SDS011;16424;50.956;5.320;2023-06-26T13:12:00;5.55;;;0.98;;
29452;SDS011;16424;50.956;5.320;2023-06-26T13:14:29;4.90;;;0.98;;
29452;SDS011;16424;50.956;5.320;2023-06-26T13:16:55;2.95;;;0.82;;
29452;SDS011;16424;50.956;5.320;2023-06-26T13:19:21;6.47;;;1.30;;
29452;SDS011;16424;50.956;5.320;2023-06-26T13:21:47;3.15;;;0.77;;
29452;SDS011;16424;50.956;5.320;2023-06-26T13:24:12;2.63;;;0.70;;
29452;SDS011;16424;50.956;5.320;2023-06-26T13:26:38;2.85;;;1.00;;
29452;SDS011;16424;50.956;5.320;2023-06-26T13:29:04;2.75;;;0.90;;
29452;SDS011;16424;50.956;5.320;2023-06-26T13:31:31;2.25;;;0.80;;
29452;SDS011;16424;50.956;5.320;2023-06-26T13:33:57;3.55;;;0.80;;
29452;SDS011;16424;50.956;5.320;2023-06-26T13:36:24;6.45;;;0.85;;
29452;SDS011;16424;50.956;5.320;2023-06-26T13:38:49;6.55;;;1.00;;
29452;SDS011;16424;50.956;5.320;2023-06-26T13:41:21;3.42;;;1.10;;
29452;SDS011;16424;50.956;5.320;2023-06-26T13:43:50;4.72;;;1.00;;
29452;SDS011;16424;50.956;5.320;2023-06-26T13:46:16;4.63;;;1.02;;
29452;SDS011;16424;50.956;5.320;2023-06-26T13:48:43;3.80;;;0.73;;
29452;SDS011;16424;50.956;5.320;2023-06-26T13:51:09;5.25;;;0.85;;
29452;SDS011;16424;50.956;5.320;2023-06-26T13:53:35;3.05;;;0.80;;
29452;SDS011;16424;50.956;5.320;2023-06-26T13:56:01;3.65;;;1.00;;
29452;SDS011;16424;50.956;5.320;2023-06-26T13:58:27;5.20;;;1.02;;
29452;SDS011;16424;50.956;5.320;2023-06-26T14:00:55;2.95;;;0.80;;
29452;SDS011;16424;50.956;5.320;2023-06-26T14:03:21;3.45;;;1.20;;
29452;SDS011;16424;50.956;5.320;2023-06-26T14:05:46;2.60;;;0.88;;
29452;SDS011;16424;50.956;5.320;2023-06-26T14:08:13;3.85;;;0.90;;
29452;SDS011;16424;50.956;5.320;2023-06-26T14:10:39;5.32;;;1.40;;
29452;SDS011;16424;50.956;5.320;2023-06-26T14:13:04;6.70;;;1.25;;
29452;SDS011;16424;50.956;5.320;2023-06-26T14:15:32;4.65;;;1.35;;
29452;SDS011;16424;50.956;5.320;2023-06-26T14:17:59;2.72;;;0.90;;
29452;SDS011;16424;50.956;5.320;2023-06-26T14:20:30;3.63;;;0.90;;
29452;SDS011;16424;50.956;5.320;2023-06-26T14:22:57;3.40;;;0.93;;
29452;SDS011;16424;50.956;5.320;2023-06-26T14:25:24;5.03;;;1.13;;
29452;SDS011;16424;50.956;5.320;2023-06-26T14:27:53;4.45;;;1.30;;
29452;SDS011;16424;50.956;5.320;2023-06-26T14:30:22;3.47;;;0.80;;
29452;SDS011;16424;50.956;5.320;2023-06-26T14:32:47;3.05;;;1.10;;
29452;SDS011;16424;50.956;5.320;2023-06-26T14:35:13;3.65;;;1.15;;
29452;SDS011;16424;50.956;5.320;2023-06-26T14:37:39;5.53;;;1.02;;
29452;SDS011;16424;50.956;5.320;2023-06-26T14:40:06;4.70;;;0.95;;
29452;SDS011;16424;50.956;5.320;2023-06-26T14:42:33;4.72;;;0.95;;
29452;SDS011;16424;50.956;5.320;2023-06-26T14:44:58;2.45;;;0.90;;
29452;SDS011;16424;50.956;5.320;2023-06-26T14:47:24;4.13;;;1.00;;
29452;SDS011;16424;50.956;5.320;2023-06-26T14:49:50;3.25;;;1.08;;
29452;SDS011;16424;50.956;5.320;2023-06-26T14:52:16;4.28;;;1.20;;
29452;SDS011;16424;50.956;5.320;2023-06-26T14:54:42;2.40;;;0.88;;
29452;SDS011;16424;50.956;5.320;2023-06-26T14:57:08;2.38;;;1.00;;
29452;SDS011;16424;50.956;5.320;2023-06-26T14:59:33;4.97;;;1.17;;
29452;SDS011;16424;50.956;5.320;2023-06-26T15:01:59;3.75;;;0.82;;